Scott Nathan — WDC8788 — position and weather

sailwx.info

Track history (hours):
 
Tides and Currents Weather Stations Pressure Air Temp Water Temp Dewpoint Dewpoint Depression Visibility Wind Speed Wind Dir Waves Ship Positions

Scott Nathan

Owner: BRINDLEY, JAMES A, BARNEGAT LIGHT, NJ. More information available from US FCC via Universal Licensing System and Coast Guard Vessel Documentation Center.

Last reported at 2017-Nov-12 10:58 UTC. Time now 2017-Nov-21 10:22 UTC.
Position N 39°49' W 074°01'.
Warning: this ship's position is 8 days out of date.

Length 16 m.

Type: Fishing. MMSI: 367093070.

Date/timePositionNaut miles runAvg speedWind from/ knotsBaromVisibWave heightAir tempDewpointWater temp
2017-Nov-12 10:58N 39°49' W 074°01'4 6.9
2017-Nov-12 10:26N 39°46' W 074°04'2 2.3
2017-Nov-12 09:36N 39°46' W 074°07'0 0.0
2017-Nov-12 09:27N 39°46' W 074°07'0 0.0
2017-Nov-12 08:42N 39°46' W 074°07'0 0.0
2017-Nov-12 08:30N 39°46' W 074°07'0 0.0
2017-Nov-12 07:54N 39°46' W 074°07'0 0.0
2017-Nov-12 07:24N 39°46' W 074°07'  
2017-Nov-10 00:39N 39°46' W 074°07'1 2.9
2017-Nov-10 00:29N 39°46' W 074°06'3 5.3
2017-Nov-10 00:00N 39°47' W 074°03'2 0.2
2017-Nov-09 08:26N 39°49' W 074°01'3 6.0
2017-Nov-09 08:00N 39°47' W 074°03'3 5.3
2017-Nov-09 07:29N 39°46' W 074°07'  
2017-Nov-03 16:26N 39°46' W 074°07'0 0.0
2017-Nov-03 15:42N 39°46' W 074°07'0 0.1
2017-Nov-03 15:26N 39°46' W 074°07'0 0.0
2017-Nov-03 14:56N 39°46' W 074°07'  
Track history (hours):
 
Tides and Currents Weather Stations Pressure Air Temp Water Temp Dewpoint Dewpoint Depression Visibility Wind Speed Wind Dir Waves Ship Positions

Scott Nathan

Owner: BRINDLEY, JAMES A, BARNEGAT LIGHT, NJ. More information available from US FCC via Universal Licensing System and Coast Guard Vessel Documentation Center.

Last reported at 2017-Nov-12 10:58 UTC. Time now 2017-Nov-21 10:22 UTC.
Position N 39°49' W 074°01'.
Warning: this ship's position is 8 days out of date.

Length 16 m.

Type: Fishing. MMSI: 367093070.

Date/timePositionNaut miles runAvg speedWind from/ knotsBaromVisibWave heightAir tempDewpointWater temp
2017-Nov-12 10:58N 39°49' W 074°01'4 6.9
2017-Nov-12 10:26N 39°46' W 074°04'2 2.3
2017-Nov-12 09:36N 39°46' W 074°07'0 0.0
2017-Nov-12 09:27N 39°46' W 074°07'0 0.0
2017-Nov-12 08:42N 39°46' W 074°07'0 0.0
2017-Nov-12 08:30N 39°46' W 074°07'0 0.0
2017-Nov-12 07:54N 39°46' W 074°07'0 0.0
2017-Nov-12 07:24N 39°46' W 074°07'  
2017-Nov-10 00:39N 39°46' W 074°07'1 2.9
2017-Nov-10 00:29N 39°46' W 074°06'3 5.3
2017-Nov-10 00:00N 39°47' W 074°03'2 0.2
2017-Nov-09 08:26N 39°49' W 074°01'3 6.0
2017-Nov-09 08:00N 39°47' W 074°03'3 5.3
2017-Nov-09 07:29N 39°46' W 074°07'  
2017-Nov-03 16:26N 39°46' W 074°07'0 0.0
2017-Nov-03 15:42N 39°46' W 074°07'0 0.1
2017-Nov-03 15:26N 39°46' W 074°07'0 0.0
2017-Nov-03 14:56N 39°46' W 074°07'  

Dump ship's entire track history